Atwood, CO

6:29 AM MDT on September 16, 2014 (GMT -0600)
Sterling Municipal | Change Station
CLOSE
Current Station
Airport
Location: Sterling Muni, Sterling, CO,
Elevation: 4039 ft
Nearby Weather Stations

Elev 4039 ft 40.62 °N, 103.26 °W | Updated 19 minutes ago

Clear
Clear
50 °F
Feels Like 50 °F
N
6
Wind Variable Wind from SSW

Today
High -- | Low -- °F
--% Chance of Precip.
Yesterday
High -- | Low -- °F
Precip. -- in
6:34 AM 7:00 PM
Last Quarter, 46% visible
Pressure 30.11 in
Visibility 5.0 miles
Clouds Clear
Dew Point 50 °F
Humidity 100%
Rainfall 0.00 in
Snow Depth 0 in , 1 in , 0 in
UV 0 out of 12
Pollen 7.30 out of 12
Air Quality Not available.
Flu Activity Not available.
METAR KSTK 161210Z AUTO 21005KT 5SM BR CLR 10/10 A3011 RMK AO2

More Conditions Fewer Conditions

Pressure 30.11 in
Visibility 5.0 miles
Clouds Clear
Dew Point 50 °F
Humidity 100%
Rainfall 0.00 in
Snow Depth 0 in , 1 in , 0 in
UV 0 out of 12
Pollen 7.30 out of 12
Air Quality Not available.
Flu Activity Not available.
METAR KSTK 161210Z AUTO 21005KT 5SM BR CLR 10/10 A3011 RMK AO2

More Conditions Fewer Conditions

10-Day Weather Forecast

Almanac

Astronomy

Sep. 16, 2014 Rise Set
Actual Time 6:34 AM MDT 7:00 PM MDT
Civil Twilight 6:07 AM MDT 7:27 PM MDT
Nautical Twilight 5:35 AM MDT 7:59 PM MDT
Astronomical Twilight 5:02 AM MDT 8:32 PM MDT
Moon No Moon Rise 2:26 PM MDT
Length of Visible Light 13h 20m
Length of Day
12h 25m
Tomorrow will be 2m 39s shorter.
Last Quarter, 46% of the Moon is Illuminated
Today
Last Quarter
Sep 24
New
Oct 1
First Quarter
Oct 8
Full
Oct 15
Last Quarter

Today's Extremes

State Highs State Lows

Community

WunderPhotos

Upload Photos

1,753,754 photos uploaded!

Nearby

Snow Depth

Station Depth Elevation
Trapper Lake 0 in 9700 ft
Cumbres Trestle 1 in 10020 ft
Fremont Pass 0 in 11400 ft
Beaver Divide 0 in 8280 ft
Spud Mountain 0 in 10660 ft

Earthquake Activity

City Distance Mag. Time & Date
No recent earthquake activity has been reported nearby.
Minimum magnitude displayed is 2.5.

Coastal Water Temperatures

Place Temperature
No Stations Reporting

Nearby Weather Stations